Terminal Aerodrome Forecast
Issued by NWS Albany, NY

Home | Current Version | Previous Version | Text Only | Print | Product List | Glossary On
Versions: 1 2 3 4 5 6 7 8 9 10 11 12 13 14 15 16
000
FTUS41 KALY 302354 CCA
TAFPOU
TAF COR
KPOU 302354Z 0100/0124 VRB03KT P6SM BKN050 OVC250
     FM010800 VRB03KT P6SM VCSH SCT025 OVC050
     FM011400 VRB03KT 5SM -RA BR OVC025=

USA.gov is the U.S. government's official web portal to all federal, state and local government web resources and services.